Time;durP1;ratioP1;P1;durP2;ratioP2;P2;SDS_P1;SDS_P2;PMS_P1;PMS_P2;Temp;Humidity;BMP_temperature;BMP_pressure;BME280_temperature;BME280_humidity;BME280_pressure;Samples;Min_cycle;Max_cycle;Signal;HPM_P1;HPM_P2
2022/12/13 00:01:31;;;;;;;13.10;8.20;;;;;;;1.27;65.09;98346.86;225978;1237;138253;-64
2022/12/13 00:06:46;;;;;;;11.90;7.80;;;;;;;1.29;65.13;98356.04;226100;1241;138039;-63
2022/12/13 00:11:55;;;;;;;11.20;7.10;;;;;;;1.21;64.74;98354.41;227119;1234;138914;-63
2022/12/13 00:17:02;;;;;;;13.20;7.40;;;;;;;1.09;65.00;98352.73;226983;1233;137909;-62
2022/12/13 00:22:10;;;;;;;11.60;7.30;;;;;;;1.11;64.87;98352.12;225926;1237;139084;-63
2022/12/13 00:27:14;;;;;;;10.00;7.00;;;;;;;1.20;64.46;98348.14;227050;1237;138140;-63
2022/12/13 00:32:22;;;;;;;10.20;6.90;;;;;;;1.19;64.28;98348.52;227176;1233;138004;-63
2022/12/13 00:37:29;;;;;;;11.90;7.10;;;;;;;1.13;64.05;98356.92;226058;1234;138126;-64
2022/12/13 00:42:36;;;;;;;9.40;6.10;;;;;;;1.07;63.90;98368.14;226939;1236;137929;-63
2022/12/13 00:48:06;;;;;;;11.00;7.00;;;;;;;0.98;63.88;98373.20;227026;1230;138156;-63
2022/12/13 00:53:20;;;;;;;9.80;6.70;;;;;;;0.94;64.11;98376.98;225913;1233;138716;-63
2022/12/13 00:58:25;;;;;;;10.70;6.90;;;;;;;0.90;63.90;98382.02;225956;1238;137509;-63
2022/12/13 01:03:30;;;;;;;12.60;7.80;;;;;;;0.84;64.10;98385.52;225899;1243;139126;-63
2022/12/13 01:08:47;;;;;;;11.20;6.70;;;;;;;0.88;64.28;98392.20;225848;1248;138406;-63
2022/12/13 01:14:17;;;;;;;11.00;7.10;;;;;;;0.82;64.41;98387.86;226220;1233;138304;-64
2022/12/13 01:19:28;;;;;;;11.00;7.50;;;;;;;0.78;64.48;98391.15;226368;1240;137807;-63
2022/12/13 01:24:45;;;;;;;9.40;6.30;;;;;;;0.79;64.26;98391.65;225890;1240;137617;-63
2022/12/13 01:29:50;;;;;;;9.80;6.90;;;;;;;0.82;64.33;98394.52;226086;1238;138664;-63
2022/12/13 01:35:02;;;;;;;11.00;7.10;;;;;;;0.83;64.20;98396.75;226171;1237;138283;-63
2022/12/13 01:40:12;;;;;;;11.80;7.50;;;;;;;0.77;64.13;98400.08;227088;1238;139016;-63
2022/12/13 01:45:28;;;;;;;11.10;7.20;;;;;;;0.78;64.12;98401.45;226123;1240;137730;-63
2022/12/13 01:50:41;;;;;;;10.60;7.00;;;;;;;0.73;64.19;98403.52;226015;1244;138515;-63
2022/12/13 01:55:56;;;;;;;10.60;6.90;;;;;;;0.72;64.08;98408.98;226025;1241;138206;-63
2022/12/13 02:01:08;;;;;;;10.60;7.00;;;;;;;0.75;64.22;98416.39;223828;1236;138577;-63
2022/12/13 02:06:57;;;;;;;;;;;;;;;;;;;;;
2022/12/13 02:12:17;;;;;;;12.50;6.70;;;;;;;0.78;64.22;98420.14;224122;1238;138033;-62
2022/12/13 02:18:10;;;;;;;11.50;6.70;;;;;;;0.78;63.98;98424.31;224133;1241;138077;-62
2022/12/13 02:25:00;;;;;;;12.20;6.30;;;;;;;0.80;63.90;98428.27;223707;1242;137698;-63
2022/12/13 02:31:04;;;;;;;8.90;6.10;;;;;;;0.75;63.65;98429.84;223518;1237;138890;-62
2022/12/13 02:36:37;;;;;;;;;;;;;;;;;;;;;
2022/12/13 02:45:21;;;;;;;10.50;6.50;;;;;;;0.49;63.33;98439.55;221180;1243;635383;-63
2022/12/13 02:51:07;;;;;;;7.80;5.50;;;;;;;0.43;63.39;98443.02;223247;1240;137005;-62
2022/12/13 02:57:50;;;;;;;7.00;5.10;;;;;;;0.37;63.22;98444.79;223049;1243;139178;-62
2022/12/13 03:03:39;;;;;;;11.90;5.80;;;;;;;0.31;63.21;98444.64;226217;1230;137606;-62
2022/12/13 03:09:57;;;;;;;8.80;5.80;;;;;;;0.23;63.27;98443.50;225133;1240;137304;-61
2022/12/13 03:15:20;;;;;;;9.30;5.50;;;;;;;0.21;63.22;98444.95;225047;1244;137734;-63
2022/12/13 03:20:33;;;;;;;8.60;5.60;;;;;;;0.22;63.05;98446.84;225180;1244;137448;-62
2022/12/13 03:25:38;;;;;;;9.40;5.70;;;;;;;0.22;63.34;98441.26;225612;1240;138393;-62
2022/12/13 03:30:46;;;;;;;8.00;5.50;;;;;;;0.21;63.40;98444.91;225633;1241;137223;-63
2022/12/13 03:35:51;;;;;;;9.70;6.00;;;;;;;0.24;63.59;98453.06;225796;1238;137872;-62
2022/12/13 03:41:14;;;;;;;118.60;66.00;;;;;;;0.33;65.08;98452.24;226598;1240;137818;-62
2022/12/13 03:46:19;;;;;;;23.90;15.60;;;;;;;0.39;63.82;98456.27;225703;1240;138275;-62
2022/12/13 03:51:44;;;;;;;13.10;7.50;;;;;;;0.31;63.65;98455.48;225687;1238;137950;-62
2022/12/13 03:57:02;;;;;;;11.20;7.00;;;;;;;0.26;63.50;98453.33;226757;1240;137809;-62
2022/12/13 04:02:15;;;;;;;8.90;5.40;;;;;;;0.10;63.66;98457.64;225823;1242;138255;-63
2022/12/13 04:07:34;;;;;;;84.60;49.30;;;;;;;0.06;63.61;98461.80;226276;1233;137778;-62
2022/12/13 04:18:19;;;;;;;14.30;8.70;;;;;;;0.31;63.32;98471.68;226793;1244;138234;-65
2022/12/13 04:29:07;;;;;;;14.60;9.80;;;;;;;0.35;63.74;98481.15;225206;1232;138381;-64
2022/12/13 04:34:39;;;;;;;15.60;5.80;;;;;;;0.30;63.89;98483.40;226500;1241;137847;-63
2022/12/13 04:40:14;;;;;;;13.50;9.70;;;;;;;0.21;63.91;98484.54;225994;1243;138091;-63
2022/12/13 04:45:48;;;;;;;17.10;10.10;;;;;;;0.19;64.00;98486.17;226593;1234;138340;-63
2022/12/13 04:51:02;;;;;;;19.60;12.30;;;;;;;0.21;64.48;98489.06;225677;1241;137805;-62
2022/12/13 04:56:16;;;;;;;18.00;11.40;;;;;;;0.24;64.02;98488.98;225824;1238;138283;-62
2022/12/13 05:01:34;;;;;;;17.00;10.70;;;;;;;0.14;63.91;98487.36;225689;1240;137476;-62
2022/12/13 05:06:47;;;;;;;17.20;11.20;;;;;;;-0.01;64.20;98488.66;226311;1239;137613;-62
2022/12/13 05:12:28;;;;;;;16.40;11.00;;;;;;;-0.07;64.40;98489.70;225253;1235;138671;-62
2022/12/13 05:17:42;;;;;;;16.90;11.90;;;;;;;-0.14;64.62;98493.36;226355;1235;159715;-62
2022/12/13 05:29:06;;;;;;;16.70;10.50;;;;;;;-0.19;64.83;98494.38;225686;1243;138269;-62
2022/12/13 05:34:25;;;;;;;17.80;10.70;;;;;;;-0.14;64.99;98497.91;225674;1236;139321;-61
2022/12/13 05:39:48;;;;;;;16.70;11.50;;;;;;;-0.12;65.01;98498.73;226133;1227;139198;-63
2022/12/13 05:45:15;;;;;;;20.60;11.90;;;;;;;-0.12;64.90;98502.92;225299;1243;137871;-63
2022/12/13 05:50:48;;;;;;;15.70;11.40;;;;;;;-0.14;64.79;98507.32;226044;1240;138511;-63
2022/12/13 05:57:10;;;;;;;17.10;10.20;;;;;;;-0.19;64.81;98509.23;226275;1234;138635;-63
2022/12/13 06:02:45;;;;;;;16.20;11.00;;;;;;;-0.35;65.06;98509.28;225583;1243;138907;-62
2022/12/13 06:08:14;;;;;;;18.90;11.60;;;;;;;-0.40;65.39;98518.65;226077;1237;138236;-63
2022/12/13 06:13:42;;;;;;;18.10;11.40;;;;;;;-0.43;65.46;98525.71;226334;1237;138607;-62
2022/12/13 06:19:09;;;;;;;;;;;;;;;-0.46;65.42;98526.51;227479;1231;139650;-63
2022/12/13 06:24:53;;;;;;;18.10;11.20;;;;;;;-0.52;65.42;98528.89;227355;1231;124446;-63
2022/12/13 06:29:58;;;;;;;23.10;13.60;;;;;;;-0.53;65.41;98542.00;226248;1228;138145;-63
2022/12/13 06:35:47;;;;;;;20.40;11.40;;;;;;;-0.49;65.34;98546.77;227673;1234;139865;-62
2022/12/13 06:41:32;;;;;;;18.40;10.10;;;;;;;-0.47;64.79;98553.17;227543;1229;137920;-62
2022/12/13 06:46:44;;;;;;;18.50;10.00;;;;;;;-0.49;64.56;98553.91;226066;1239;138643;-62
2022/12/13 06:51:52;;;;;;;16.00;10.10;;;;;;;-0.46;64.42;98557.66;227431;1227;137992;-62
2022/12/13 06:57:16;;;;;;;17.80;8.50;;;;;;;-0.44;64.22;98564.95;227409;1234;139208;-62
2022/12/13 07:02:46;;;;;;;13.80;8.00;;;;;;;-0.44;64.17;98570.69;226279;1236;138550;-62
2022/12/13 07:07:56;;;;;;;15.90;9.70;;;;;;;-0.47;64.23;98580.52;226115;1239;138304;-63
2022/12/13 07:19:19;;;;;;;20.10;10.70;;;;;;;-0.36;64.04;98595.04;225890;1232;138664;-64
2022/12/13 07:25:22;;;;;;;18.00;10.00;;;;;;;-0.28;63.69;98598.52;226045;1239;139051;-65
2022/12/13 07:31:21;;;;;;;18.50;9.50;;;;;;;-0.29;63.72;98604.80;226134;1235;137661;-65
2022/12/13 07:37:07;;;;;;;14.60;8.70;;;;;;;-0.29;63.34;98608.48;227210;1226;138126;-64
2022/12/13 07:43:01;;;;;;;14.90;9.30;;;;;;;-0.30;63.28;98613.55;227496;1238;138189;-64
2022/12/13 07:49:12;;;;;;;13.30;8.40;;;;;;;-0.24;63.00;98615.31;226196;1237;138234;-64
2022/12/13 07:54:52;;;;;;;15.90;8.20;;;;;;;-0.15;62.82;98616.13;226401;1238;139707;-65
2022/12/13 08:00:44;;;;;;;15.60;8.60;;;;;;;-0.15;62.24;98622.26;226641;1231;138466;-65
2022/12/13 08:06:13;;;;;;;13.20;7.90;;;;;;;-0.15;61.62;98618.04;227481;1230;140077;-65
2022/12/13 08:11:42;;;;;;;13.70;8.00;;;;;;;-0.17;61.03;98632.05;227571;1237;139135;-63
2022/12/13 08:17:17;;;;;;;12.60;8.00;;;;;;;-0.26;61.44;98631.75;225977;1234;138209;-64
2022/12/13 08:22:32;;;;;;;11.60;7.20;;;;;;;-0.32;61.13;98627.89;226218;1240;138081;-65
2022/12/13 08:28:24;;;;;;;;;;;;;;;;;;;;;
2022/12/13 08:34:57;;;;;;;12.90;8.10;;;;;;;-0.36;61.12;98637.41;227320;1237;138802;-62
2022/12/13 08:40:37;;;;;;;11.60;7.60;;;;;;;-0.34;61.21;98638.58;226141;1235;138106;-62
2022/12/13 08:46:14;;;;;;;12.90;8.30;;;;;;;-0.24;61.13;98644.40;226053;1233;139154;-63
2022/12/13 08:51:46;;;;;;;13.60;7.30;;;;;;;-0.17;60.90;98643.04;226293;1240;138157;-63
2022/12/13 08:57:57;;;;;;;10.90;7.20;;;;;;;-0.13;60.82;98638.23;226026;1244;137970;-61
2022/12/13 09:09:19;;;;;;;12.40;7.20;;;;;;;-0.05;60.19;98639.40;226091;1236;138091;-63
2022/12/13 09:14:31;;;;;;;14.20;9.50;;;;;;;-0.04;60.40;98635.91;227043;1232;138268;-64
2022/12/13 09:19:36;;;;;;;13.00;8.40;;;;;;;0.10;61.14;98631.70;226159;1226;138396;-64
2022/12/13 09:24:44;;;;;;;14.50;9.00;;;;;;;0.13;60.62;98629.35;227310;1234;137898;-64
2022/12/13 09:29:52;;;;;;;17.90;8.10;;;;;;;0.12;60.62;98628.67;227390;1232;137720;-62
2022/12/13 09:34:56;;;;;;;14.40;9.00;;;;;;;0.17;60.53;98627.67;227545;1231;137980;-63
2022/12/13 09:40:10;;;;;;;15.20;9.10;;;;;;;0.23;60.54;98628.73;226220;1240;137800;-63
2022/12/13 09:45:29;;;;;;;12.70;8.00;;;;;;;0.28;59.84;98635.23;225991;1240;138502;-64
2022/12/13 09:50:35;;;;;;;12.60;7.50;;;;;;;0.32;59.65;98635.83;226150;1236;139205;-62
2022/12/13 09:55:47;;;;;;;13.90;8.70;;;;;;;0.34;59.56;98639.60;227311;1234;138217;-62
2022/12/13 10:00:57;;;;;;;13.40;7.70;;;;;;;0.38;59.60;98636.71;225918;1238;138588;-63
2022/12/13 10:06:20;;;;;;;13.20;8.70;;;;;;;0.31;59.39;98634.44;227526;1233;137932;-64
2022/12/13 10:11:37;;;;;;;15.50;9.30;;;;;;;0.30;59.44;98634.33;226476;1244;138567;-62
2022/12/13 10:16:48;;;;;;;13.10;7.70;;;;;;;0.32;59.31;98635.65;227451;1234;137831;-63
2022/12/13 10:21:52;;;;;;;11.60;8.20;;;;;;;0.31;58.83;98625.73;226112;1237;138373;-62
2022/12/13 10:27:16;;;;;;;26.90;13.70;;;;;;;0.34;59.72;98626.34;225984;1239;138425;-63
2022/12/13 10:32:20;;;;;;;;;;;;;;;0.45;59.64;98629.70;226356;1239;138145;-63
2022/12/13 10:37:53;;;;;;;15.70;8.60;;;;;;;0.44;59.25;98623.44;226541;1241;124066;-62
2022/12/13 10:43:14;;;;;;;13.40;7.70;;;;;;;0.49;58.48;98620.88;226343;1239;137773;-63
2022/12/13 10:48:21;;;;;;;10.20;6.90;;;;;;;0.51;57.80;98624.64;226199;1244;138099;-63
2022/12/13 10:53:59;;;;;;;11.20;6.70;;;;;;;0.46;56.63;98624.42;226422;1237;137717;-63
2022/12/13 10:59:19;;;;;;;10.00;6.50;;;;;;;0.37;56.58;98626.60;226647;1244;138080;-63
2022/12/13 11:04:39;;;;;;;11.00;7.00;;;;;;;0.21;56.42;98629.47;225961;1241;139093;-63
2022/12/13 11:09:57;;;;;;;11.60;6.70;;;;;;;0.17;57.02;98630.81;226078;1240;138103;-63
2022/12/13 11:15:22;;;;;;;11.80;7.60;;;;;;;0.23;57.25;98629.61;227581;1226;138013;-64
2022/12/13 11:20:55;;;;;;;13.20;8.30;;;;;;;0.32;56.90;98626.23;227440;1228;138527;-63
2022/12/13 11:26:21;;;;;;;13.40;8.00;;;;;;;0.46;57.54;98618.31;226187;1240;138801;-64
2022/12/13 11:31:57;;;;;;;13.50;8.40;;;;;;;0.57;57.24;98612.09;226574;1241;138294;-63
2022/12/13 11:37:47;;;;;;;13.30;8.50;;;;;;;0.57;57.20;98605.96;227510;1231;138697;-64
2022/12/13 11:43:18;;;;;;;13.00;7.40;;;;;;;0.52;56.96;98606.30;226414;1246;137900;-63
2022/12/13 11:48:43;;;;;;;16.10;8.60;;;;;;;0.49;56.95;98609.70;226297;1248;137689;-64
2022/12/13 11:53:55;;;;;;;12.00;7.80;;;;;;;0.49;57.33;98608.66;226327;1238;139060;-64
2022/12/13 11:59:21;;;;;;;;;;;;;;;;;;;;;
2022/12/13 12:04:36;;;;;;;11.50;7.70;;;;;;;0.40;57.48;98618.86;226079;1243;138257;-64
2022/12/13 12:09:52;;;;;;;13.10;8.20;;;;;;;0.44;57.21;98618.91;226076;1243;138062;-64
2022/12/13 12:15:06;;;;;;;12.00;8.20;;;;;;;0.51;57.04;98617.86;226315;1238;138556;-64
2022/12/13 12:20:43;;;;;;;13.90;8.80;;;;;;;0.50;57.12;98621.54;226558;1238;137939;-64
2022/12/13 12:26:23;;;;;;;15.80;8.40;;;;;;;0.48;57.12;98626.83;226083;1236;138716;-64
2022/12/13 12:31:40;;;;;;;;;;;;;;;0.48;57.03;98629.27;226298;1241;139686;-64
2022/12/13 12:37:12;;;;;;;12.30;7.60;;;;;;;0.51;57.17;98632.15;226455;1242;124917;-64
2022/12/13 12:42:35;;;;;;;14.30;8.70;;;;;;;0.50;56.95;98630.95;226258;1241;138143;-64
2022/12/13 12:48:20;;;;;;;15.30;9.20;;;;;;;0.45;57.07;98627.77;226146;1244;138737;-63
2022/12/13 12:53:53;;;;;;;13.10;8.70;;;;;;;0.38;57.33;98630.24;227415;1231;138145;-64
2022/12/13 12:59:17;;;;;;;14.80;8.90;;;;;;;0.36;57.37;98637.27;227531;1231;138435;-65
2022/12/13 13:04:34;;;;;;;13.80;9.40;;;;;;;0.31;57.55;98639.70;226502;1238;138401;-64
2022/12/13 13:09:40;;;;;;;21.40;12.40;;;;;;;0.35;57.97;98638.36;226378;1238;137775;-65
2022/12/13 13:14:44;;;;;;;16.40;10.60;;;;;;;0.40;57.91;98642.40;226442;1238;138151;-64
2022/12/13 13:19:53;;;;;;;17.00;9.50;;;;;;;0.41;57.85;98638.54;226465;1234;138295;-65
2022/12/13 13:25:25;;;;;;;11.60;7.70;;;;;;;0.40;57.76;98640.30;226198;1236;138362;-65
2022/12/13 13:30:30;;;;;;;14.80;9.80;;;;;;;0.39;57.80;98644.00;227478;1231;137948;-64
2022/12/13 13:35:46;;;;;;;15.20;8.70;;;;;;;0.36;57.66;98647.23;226038;1241;138123;-64
2022/12/13 13:40:57;;;;;;;15.30;10.00;;;;;;;0.35;57.30;98642.19;226682;1237;138177;-64
2022/12/13 13:46:01;;;;;;;14.20;9.40;;;;;;;0.35;57.52;98644.97;226415;1242;137995;-66
2022/12/13 13:51:23;;;;;;;12.10;7.70;;;;;;;0.32;57.21;98645.77;226493;1240;137788;-64
2022/12/13 13:56:46;;;;;;;14.00;8.40;;;;;;;0.40;55.87;98648.33;226153;1240;138097;-64
2022/12/13 14:02:34;;;;;;;15.20;9.50;;;;;;;0.49;55.44;98649.15;225998;1233;138595;-64
2022/12/13 14:08:18;;;;;;;13.00;7.80;;;;;;;0.47;55.95;98656.52;227251;1234;138920;-64
2022/12/13 14:14:23;;;;;;;14.60;8.10;;;;;;;0.48;55.46;98666.45;226865;1234;138046;-64
2022/12/13 14:20:04;;;;;;;14.30;8.10;;;;;;;0.44;55.58;98669.15;226221;1239;137955;-64
2022/12/13 14:25:40;;;;;;;12.90;8.50;;;;;;;0.44;55.84;98670.73;226580;1241;138203;-65
2022/12/13 14:30:53;;;;;;;49.80;31.00;;;;;;;0.39;57.00;98676.98;226420;1245;138853;-65
2022/12/13 14:36:04;;;;;;;16.20;10.30;;;;;;;0.50;57.79;98675.45;226021;1234;138512;-65
2022/12/13 14:41:18;;;;;;;15.60;9.50;;;;;;;0.48;57.29;98674.82;225987;1242;139032;-65
2022/12/13 14:46:24;;;;;;;17.40;10.20;;;;;;;0.39;57.20;98676.80;226251;1245;138527;-64
2022/12/13 14:51:32;;;;;;;17.80;10.30;;;;;;;0.36;57.49;98681.41;226033;1241;139462;-63
2022/12/13 14:56:56;;;;;;;21.20;11.80;;;;;;;0.30;57.75;98681.59;227031;1235;138583;-65
2022/12/13 15:02:28;;;;;;;53.10;29.10;;;;;;;0.23;59.43;98678.45;226109;1237;140389;-64
2022/12/13 15:07:37;;;;;;;23.80;12.20;;;;;;;0.34;58.53;98681.98;226047;1241;138409;-64
2022/12/13 15:12:50;;;;;;;15.90;9.40;;;;;;;0.34;57.17;98683.40;226311;1241;138475;-65
2022/12/13 15:18:21;;;;;;;15.60;9.60;;;;;;;0.32;56.56;98686.61;226048;1245;138638;-65
2022/12/13 15:24:19;;;;;;;18.50;10.50;;;;;;;0.25;56.60;98686.95;226219;1244;138085;-64
2022/12/13 15:29:34;;;;;;;17.60;10.70;;;;;;;0.23;56.20;98696.05;226545;1239;138532;-65
2022/12/13 15:35:15;;;;;;;17.50;9.60;;;;;;;0.25;56.15;98697.79;226408;1235;138538;-66
2022/12/13 15:40:19;;;;;;;13.40;9.30;;;;;;;0.22;55.89;98699.76;226703;1244;137887;-66
2022/12/13 15:45:30;;;;;;;15.00;9.40;;;;;;;0.19;55.72;98697.38;226206;1237;138258;-66
2022/12/13 15:50:45;;;;;;;16.20;9.70;;;;;;;0.11;55.67;98701.95;226744;1241;138364;-66
2022/12/13 15:55:55;;;;;;;16.00;9.50;;;;;;;0.08;55.83;98700.27;226681;1244;138877;-65
2022/12/13 16:01:06;;;;;;;16.90;10.30;;;;;;;0.04;55.85;98706.31;226238;1242;138286;-65
2022/12/13 16:06:22;;;;;;;16.00;9.50;;;;;;;0.06;55.83;98705.74;227361;1237;138351;-65
2022/12/13 16:11:32;;;;;;;16.60;9.70;;;;;;;-0.01;56.03;98706.45;226338;1236;138459;-65
2022/12/13 16:16:37;;;;;;;15.70;9.30;;;;;;;-0.03;56.01;98710.66;226675;1238;138745;-66
2022/12/13 16:21:50;;;;;;;17.70;10.70;;;;;;;-0.03;56.39;98712.08;226913;1240;138443;-66
2022/12/13 16:26:54;;;;;;;17.70;10.20;;;;;;;0.00;56.06;98713.21;225957;1240;138997;-65
2022/12/13 16:32:04;;;;;;;25.50;14.10;;;;;;;0.15;58.33;98714.94;227582;1231;138343;-63
2022/12/13 16:37:14;;;;;;;19.50;11.10;;;;;;;0.26;55.90;98714.83;227766;1230;138592;-66
2022/12/13 16:42:30;;;;;;;18.60;11.50;;;;;;;0.19;55.42;98714.83;226408;1238;138791;-65
2022/12/13 16:47:34;;;;;;;20.30;11.20;;;;;;;0.09;55.26;98717.54;226205;1234;138149;-66
2022/12/13 16:58:44;;;;;;;18.30;10.30;;;;;;;-0.01;54.82;98720.04;227109;1229;138464;-65
2022/12/13 17:04:33;;;;;;;27.30;16.30;;;;;;;0.00;55.61;98717.23;226193;1237;138331;-65
2022/12/13 17:09:38;;;;;;;14.50;9.00;;;;;;;0.08;55.36;98721.92;226321;1238;139412;-65
2022/12/13 17:14:42;;;;;;;12.60;7.80;;;;;;;-0.01;54.28;98727.88;226429;1233;138443;-66
2022/12/13 17:19:46;;;;;;;12.20;7.30;;;;;;;-0.03;53.78;98734.23;226177;1238;137975;-65
2022/12/13 17:24:56;;;;;;;10.50;6.30;;;;;;;-0.04;53.08;98739.30;226107;1240;138285;-65
2022/12/13 17:30:08;;;;;;;10.30;5.90;;;;;;;-0.08;52.90;98744.96;227393;1226;138527;-66
2022/12/13 17:35:38;;;;;;;9.00;5.80;;;;;;;-0.19;53.26;98747.16;226053;1237;137614;-65
2022/12/13 17:40:44;;;;;;;143.50;73.10;;;;;;;-0.10;56.78;98746.41;226354;1232;138106;-65
2022/12/13 17:46:12;;;;;;;13.70;8.60;;;;;;;0.20;56.24;98752.47;225987;1235;138984;-65
2022/12/13 17:51:17;;;;;;;9.20;6.50;;;;;;;0.13;53.33;98747.94;226097;1234;138353;-65
2022/12/13 17:56:24;;;;;;;9.50;6.20;;;;;;;0.08;53.09;98755.06;225910;1236;138833;-66
2022/12/13 18:01:34;;;;;;;10.00;6.70;;;;;;;0.02;53.01;98759.39;227245;1224;138357;-66
2022/12/13 18:06:42;;;;;;;10.30;7.00;;;;;;;-0.03;53.36;98756.89;226740;1238;138252;-66
2022/12/13 18:11:49;;;;;;;11.40;6.70;;;;;;;-0.09;53.76;98766.10;226174;1238;138500;-67
2022/12/13 18:16:57;;;;;;;11.40;6.80;;;;;;;-0.17;54.08;98772.56;227462;1229;138154;-66
2022/12/13 18:22:02;;;;;;;11.50;7.20;;;;;;;-0.31;53.86;98778.27;226337;1233;138674;-66
2022/12/13 18:27:06;;;;;;;11.80;7.50;;;;;;;-0.36;54.08;98781.16;226371;1243;139031;-66
2022/12/13 18:32:12;;;;;;;98.40;61.10;;;;;;;-0.36;55.42;98785.37;226169;1234;138515;-66
2022/12/13 18:37:33;;;;;;;15.00;10.50;;;;;;;-0.17;55.82;98784.42;226135;1242;139306;-67
2022/12/13 18:42:40;;;;;;;15.00;8.90;;;;;;;-0.23;54.34;98790.30;227282;1236;139621;-68
2022/12/13 18:47:44;;;;;;;16.10;9.00;;;;;;;-0.31;54.02;98784.38;226013;1237;139523;-65
2022/12/13 18:52:58;;;;;;;33.60;19.50;;;;;;;-0.29;54.67;98791.49;226113;1227;138492;-66
2022/12/13 18:58:03;;;;;;;13.00;8.70;;;;;;;-0.24;55.99;98788.92;227369;1227;138469;-67
2022/12/13 19:03:15;;;;;;;16.30;9.30;;;;;;;-0.25;54.05;98789.13;226047;1233;139196;-65
2022/12/13 19:08:24;;;;;;;14.90;8.80;;;;;;;-0.27;53.90;98787.95;226421;1238;138531;-66
2022/12/13 19:13:44;;;;;;;16.80;10.10;;;;;;;-0.31;54.03;98790.13;227435;1234;139217;-66
2022/12/13 19:18:51;;;;;;;16.80;9.90;;;;;;;-0.34;54.09;98788.10;226119;1239;138156;-65
2022/12/13 19:23:58;;;;;;;15.50;9.20;;;;;;;-0.36;54.44;98790.77;226363;1237;138389;-67
2022/12/13 19:29:15;;;;;;;15.80;9.10;;;;;;;-0.39;54.17;98789.27;227332;1230;139468;-67
2022/12/13 19:34:20;;;;;;;14.80;9.00;;;;;;;-0.42;54.02;98789.14;227426;1229;138430;-67
2022/12/13 19:39:27;;;;;;;16.40;10.50;;;;;;;-0.34;55.91;98785.15;227432;1238;138327;-65
2022/12/13 19:44:33;;;;;;;37.00;20.40;;;;;;;-0.21;54.67;98790.61;226391;1237;138406;-65
2022/12/13 19:49:38;;;;;;;15.40;10.40;;;;;;;-0.24;54.50;98787.73;226157;1232;138553;-65
2022/12/13 19:54:46;;;;;;;16.20;9.00;;;;;;;-0.33;54.19;98787.04;226297;1238;138261;-65
2022/12/13 19:59:49;;;;;;;16.50;9.70;;;;;;;-0.40;53.87;98787.18;226192;1234;138764;-64
2022/12/13 20:04:53;;;;;;;16.30;9.80;;;;;;;-0.47;54.07;98790.30;226230;1237;140444;-64
2022/12/13 20:09:56;;;;;;;18.00;9.70;;;;;;;-0.54;54.49;98787.14;227503;1227;138773;-65
2022/12/13 20:15:01;;;;;;;18.10;10.00;;;;;;;-0.59;54.20;98785.16;226397;1234;137903;-65
2022/12/13 20:20:05;;;;;;;16.70;9.20;;;;;;;-0.62;54.59;98789.41;226261;1238;138532;-66
2022/12/13 20:25:11;;;;;;;17.40;9.70;;;;;;;-0.66;54.59;98788.45;226243;1234;137856;-66
2022/12/13 20:30:17;;;;;;;14.90;9.50;;;;;;;-0.70;54.68;98783.66;226323;1239;138317;-65
2022/12/13 20:35:20;;;;;;;18.10;10.30;;;;;;;-0.77;54.84;98783.79;226318;1244;138236;-64
2022/12/13 20:40:24;;;;;;;20.10;9.90;;;;;;;-0.80;55.04;98784.55;226179;1236;138245;-64
2022/12/13 20:45:31;;;;;;;14.60;9.70;;;;;;;-0.86;55.34;98780.49;227257;1242;138861;-64
2022/12/13 20:50:34;;;;;;;18.60;10.50;;;;;;;-0.93;55.11;98783.24;227468;1230;138282;-64
2022/12/13 20:55:37;;;;;;;17.70;10.70;;;;;;;-0.99;55.48;98784.23;226531;1243;138155;-64
2022/12/13 21:00:40;;;;;;;15.90;10.60;;;;;;;-1.06;55.50;98780.89;227453;1229;138133;-68
2022/12/13 21:05:45;;;;;;;19.80;11.10;;;;;;;-1.14;56.02;98782.44;226175;1237;139495;-67
2022/12/13 21:10:48;;;;;;;19.10;11.40;;;;;;;-1.25;56.20;98787.86;226674;1249;138618;-67
2022/12/13 21:15:51;;;;;;;19.70;11.50;;;;;;;-1.33;56.34;98793.41;227466;1240;138845;-66
2022/12/13 21:20:56;;;;;;;21.40;12.60;;;;;;;-1.36;56.49;98789.30;226114;1240;140652;-66
2022/12/13 21:25:59;;;;;;;24.30;12.80;;;;;;;-1.35;56.56;98792.06;226260;1245;138324;-65
2022/12/13 21:31:06;;;;;;;22.60;13.10;;;;;;;-1.35;56.62;98792.94;226562;1240;138352;-67
2022/12/13 21:42:20;;;;;;;20.80;12.70;;;;;;;-1.35;56.66;98794.84;226139;1234;138386;-68
2022/12/13 21:47:30;;;;;;;24.40;14.00;;;;;;;-1.35;56.56;98793.81;226339;1234;139306;-69
2022/12/13 21:52:39;;;;;;;22.60;13.80;;;;;;;-1.39;56.57;98788.83;227736;1231;138130;-67
2022/12/13 22:03:21;;;;;;;28.70;15.50;;;;;;;-1.40;56.53;98798.23;226541;1240;138299;-64
2022/12/13 22:08:28;;;;;;;24.70;13.10;;;;;;;-1.44;56.86;98800.91;227469;1230;139328;-66
2022/12/13 22:13:33;;;;;;;23.90;14.80;;;;;;;-1.61;57.44;98797.89;226303;1239;138539;-67
2022/12/13 22:18:41;;;;;;;27.50;15.80;;;;;;;-1.76;57.77;98798.50;226178;1238;139410;-67
2022/12/13 22:23:54;;;;;;;23.00;14.30;;;;;;;-1.90;57.60;98791.43;226198;1239;139247;-67
2022/12/13 22:29:57;;;;;;;29.10;14.90;;;;;;;-2.04;57.40;98790.61;227304;1237;138439;-65
2022/12/13 22:35:06;;;;;;;28.00;15.20;;;;;;;-2.24;57.41;98792.98;227214;1237;138450;-66
2022/12/13 22:40:14;;;;;;;32.90;16.40;;;;;;;-2.40;57.77;98795.66;227458;1234;138291;-65
2022/12/13 22:46:07;;;;;;;34.30;20.10;;;;;;;-2.55;58.02;98793.41;227147;1234;139483;-66
2022/12/13 22:51:19;;;;;;;25.50;15.00;;;;;;;-2.67;58.42;98793.75;226176;1227;139768;-63
2022/12/13 22:57:00;;;;;;;29.70;16.50;;;;;;;-2.79;58.72;98794.95;226422;1237;138478;-64
2022/12/13 23:02:24;;;;;;;29.20;15.70;;;;;;;-2.90;58.79;98793.16;226481;1236;138316;-64
2022/12/13 23:08:02;;;;;;;26.00;14.80;;;;;;;-3.03;59.30;98782.92;227442;1239;138826;-64
2022/12/13 23:13:28;;;;;;;27.80;15.90;;;;;;;-3.19;59.32;98781.35;225497;1238;138564;-64
2022/12/13 23:18:51;;;;;;;;;;;;;;;;;;;;;
2022/12/13 23:24:34;;;;;;;;;;;;;;;;;;;;;
2022/12/13 23:43:10;;;;;;;25.30;13.80;;;;;;;-3.60;59.62;98761.48;227677;1226;138343;-69
2022/12/13 23:56:27;;;;;;;36.10;17.40;;;;;;;-3.80;59.39;98758.91;223100;1244;138020;-67
